createdAt,value
2018-06-16T00:00:21.469Z,1012.38
2018-06-16T00:01:21.395Z,1012.37
2018-06-16T00:02:21.319Z,1012.39
2018-06-16T00:03:21.244Z,1012.35
2018-06-16T00:04:21.156Z,1012.35
2018-06-16T00:05:21.080Z,1012.39
2018-06-16T00:06:21.009Z,1012.35
2018-06-16T00:07:20.932Z,1012.34
2018-06-16T00:08:20.869Z,1012.34
2018-06-16T00:09:20.770Z,1012.28
2018-06-16T00:10:20.701Z,1012.34
2018-06-16T00:11:20.620Z,1012.31
2018-06-16T00:12:20.550Z,1012.33
2018-06-16T00:13:20.458Z,1012.33
2018-06-16T00:14:20.382Z,1012.35
2018-06-16T00:15:20.306Z,1012.36
2018-06-16T00:16:20.232Z,1012.37
2018-06-16T00:17:20.204Z,1012.33
2018-06-16T00:18:20.071Z,1012.36
2018-06-16T00:20:02.122Z,1012.35
2018-06-16T00:21:02.034Z,1012.37
2018-06-16T00:22:01.958Z,1012.38
2018-06-16T00:23:01.883Z,1012.34
2018-06-16T00:24:01.808Z,1012.34
2018-06-16T00:25:01.733Z,1012.39
2018-06-16T00:26:01.647Z,1012.38
2018-06-16T00:27:01.572Z,1012.43
2018-06-16T00:28:01.501Z,1012.42
2018-06-16T00:29:01.421Z,1012.45
2018-06-16T00:30:01.338Z,1012.45
2018-06-16T00:31:01.259Z,1012.47
2018-06-16T00:32:01.183Z,1012.45
2018-06-16T00:33:01.108Z,1012.43
2018-06-16T00:34:01.034Z,1012.45
2018-06-16T00:35:00.958Z,1012.45
2018-06-16T00:36:00.872Z,1012.41
2018-06-16T00:37:00.797Z,1012.42
2018-06-16T00:38:00.723Z,1012.43
2018-06-16T00:39:00.635Z,1012.43
2018-06-16T00:40:00.559Z,1012.45
2018-06-16T00:41:00.486Z,1012.40
2018-06-16T00:42:00.409Z,1012.41
2018-06-16T00:43:00.323Z,1012.40
2018-06-16T00:44:00.248Z,1012.40
2018-06-16T00:45:00.178Z,1012.40
2018-06-16T00:46:00.100Z,1012.46
2018-06-16T00:47:00.012Z,1012.42
2018-06-16T00:47:59.935Z,1012.46
2018-06-16T00:48:59.862Z,1012.45
2018-06-16T00:49:59.785Z,1012.48
2018-06-16T00:50:59.709Z,1012.51
2018-06-16T00:51:59.623Z,1012.51
2018-06-16T00:52:59.555Z,1012.48
2018-06-16T00:53:59.474Z,1012.45
2018-06-16T00:54:59.399Z,1012.49
2018-06-16T00:55:59.311Z,1012.48
2018-06-16T00:56:59.249Z,1012.48
2018-06-16T00:57:59.160Z,1012.47
2018-06-16T00:58:59.085Z,1012.48
2018-06-16T00:59:58.999Z,1012.50
2018-06-16T01:00:58.924Z,1012.51
2018-06-16T01:01:58.850Z,1012.52
2018-06-16T01:02:58.775Z,1012.52
2018-06-16T01:03:58.687Z,1012.50
2018-06-16T01:04:58.611Z,1012.53
2018-06-16T01:05:58.537Z,1012.51
2018-06-16T01:06:58.461Z,1012.52
2018-06-16T01:07:58.386Z,1012.55
2018-06-16T01:08:58.300Z,1012.52
2018-06-16T01:09:58.225Z,1012.54
2018-06-16T01:10:58.150Z,1012.53
2018-06-16T01:11:58.074Z,1012.54
2018-06-16T01:12:57.988Z,1012.53
2018-06-16T01:13:57.912Z,1012.51
2018-06-16T01:14:57.837Z,1012.52
2018-06-16T01:15:57.779Z,1012.53
2018-06-16T01:16:57.676Z,1012.55
2018-06-16T01:17:57.601Z,1012.54
2018-06-16T01:18:57.526Z,1012.52
2018-06-16T01:19:57.440Z,1012.54
2018-06-16T01:20:57.363Z,1012.53
2018-06-16T01:21:57.288Z,1012.51
2018-06-16T01:22:57.213Z,1012.51
2018-06-16T01:23:57.138Z,1012.48
2018-06-16T01:24:57.056Z,1012.47
2018-06-16T01:25:56.978Z,1012.42
2018-06-16T01:26:56.902Z,1012.50
2018-06-16T01:27:56.829Z,1012.47
2018-06-16T01:28:56.740Z,1012.43
2018-06-16T01:29:56.664Z,1012.44
2018-06-16T01:30:56.593Z,1012.42
2018-06-16T01:31:56.514Z,1012.43
2018-06-16T01:32:56.428Z,1012.42
2018-06-16T01:33:56.353Z,1012.39
2018-06-16T01:34:56.279Z,1012.39
2018-06-16T01:35:56.191Z,1012.42
2018-06-16T01:36:56.116Z,1012.40
2018-06-16T01:37:56.040Z,1012.38
2018-06-16T01:38:55.965Z,1012.37
2018-06-16T01:39:55.878Z,1012.37
2018-06-16T01:40:55.807Z,1012.37
2018-06-16T01:41:55.732Z,1012.42
2018-06-16T01:42:55.653Z,1012.40
2018-06-16T01:43:55.566Z,1012.40
2018-06-16T01:44:55.490Z,1012.39
2018-06-16T01:45:55.416Z,1012.40
2018-06-16T01:46:55.343Z,1012.38
2018-06-16T01:47:55.255Z,1012.38
2018-06-16T01:48:55.182Z,1012.38
2018-06-16T01:49:55.105Z,1012.37
2018-06-16T01:50:55.029Z,1012.39
2018-06-16T01:51:54.945Z,1012.40
2018-06-16T01:52:54.869Z,1012.41
2018-06-16T01:53:54.792Z,1012.43
2018-06-16T01:54:54.717Z,1012.41
2018-06-16T01:55:54.640Z,1012.41
2018-06-16T01:56:54.556Z,1012.42
2018-06-16T01:57:54.481Z,1012.44
2018-06-16T01:58:54.408Z,1012.44
2018-06-16T01:59:54.317Z,1012.42
2018-06-16T02:00:54.243Z,1012.43
2018-06-16T02:01:54.168Z,1012.43
2018-06-16T02:02:54.082Z,1012.43
2018-06-16T02:03:54.006Z,1012.44
2018-06-16T02:04:53.935Z,1012.42
2018-06-16T02:05:53.857Z,1012.38
2018-06-16T02:06:53.768Z,1012.39
2018-06-16T02:07:53.694Z,1012.33
2018-06-16T02:08:53.618Z,1012.34
2018-06-16T02:09:53.544Z,1012.35
2018-06-16T02:10:53.457Z,1012.32
2018-06-16T02:11:53.382Z,1012.30
2018-06-16T02:12:53.312Z,1012.27
2018-06-16T02:13:53.236Z,1012.27
2018-06-16T02:14:53.144Z,1012.25
2018-06-16T02:15:53.069Z,1012.24
2018-06-16T02:16:52.995Z,1012.27
2018-06-16T02:17:52.907Z,1012.24
2018-06-16T02:18:52.833Z,1012.27
2018-06-16T02:19:52.757Z,1012.25
2018-06-16T02:20:52.683Z,1012.23
2018-06-16T02:21:52.595Z,1012.22
2018-06-16T02:22:52.534Z,1012.20
2018-06-16T02:23:52.445Z,1012.20
2018-06-16T02:24:52.358Z,1012.24
2018-06-16T02:25:52.284Z,1012.25
2018-06-16T02:26:52.208Z,1012.27
2018-06-16T02:27:52.134Z,1012.28
2018-06-16T02:28:52.046Z,1012.28
2018-06-16T02:29:51.971Z,1012.22
2018-06-16T02:30:51.908Z,1012.24
2018-06-16T02:31:51.833Z,1012.25
2018-06-16T02:32:51.734Z,1012.25
2018-06-16T02:33:51.659Z,1012.28
2018-06-16T02:34:51.589Z,1012.29
2018-06-16T02:35:51.510Z,1012.27
2018-06-16T02:36:51.422Z,1012.27
2018-06-16T02:37:51.347Z,1012.26
2018-06-16T02:38:51.271Z,1012.28
2018-06-16T02:39:51.196Z,1012.31
2018-06-16T02:40:51.109Z,1012.27
2018-06-16T02:41:51.038Z,1012.28
2018-06-16T02:42:50.961Z,1012.30
2018-06-16T02:43:50.885Z,1012.29
2018-06-16T02:44:50.796Z,1012.28
2018-06-16T02:45:50.722Z,1012.29
2018-06-16T02:46:50.649Z,1012.30
2018-06-16T02:47:50.564Z,1012.31
2018-06-16T02:48:50.485Z,1012.32
2018-06-16T02:49:50.411Z,1012.31
2018-06-16T02:50:50.336Z,1012.31
2018-06-16T02:51:50.248Z,1012.30
2018-06-16T02:52:50.203Z,1012.33
2018-06-16T02:53:50.098Z,1012.32
2018-06-16T02:54:50.013Z,1012.32
2018-06-16T02:55:49.937Z,1012.31
2018-06-16T02:56:49.861Z,1012.29
2018-06-16T02:57:49.786Z,1012.29
2018-06-16T02:58:49.698Z,1012.30
2018-06-16T02:59:49.623Z,1012.27
2018-06-16T03:00:49.551Z,1012.27
2018-06-16T03:01:49.477Z,1012.31
2018-06-16T03:02:49.387Z,1012.29
2018-06-16T03:03:49.314Z,1012.31
2018-06-16T03:04:49.237Z,1012.33
2018-06-16T03:05:49.151Z,1012.33
2018-06-16T03:06:49.073Z,1012.30
2018-06-16T03:07:49.012Z,1012.26
2018-06-16T03:08:48.926Z,1012.28
2018-06-16T03:09:48.840Z,1012.29
2018-06-16T03:10:48.762Z,1012.25
2018-06-16T03:11:48.692Z,1012.25
2018-06-16T03:12:48.613Z,1012.32
2018-06-16T03:13:48.526Z,1012.26
2018-06-16T03:14:48.449Z,1012.26
2018-06-16T03:15:48.383Z,1012.29
2018-06-16T03:16:48.304Z,1012.25
2018-06-16T03:17:48.214Z,1012.23
2018-06-16T03:18:48.143Z,1012.23
2018-06-16T03:19:48.063Z,1012.27
2018-06-16T03:20:47.990Z,1012.24
2018-06-16T03:21:47.901Z,1012.30
2018-06-16T03:22:47.825Z,1012.29
2018-06-16T03:23:47.764Z,1012.28
2018-06-16T03:24:47.676Z,1012.26
2018-06-16T03:25:47.640Z,1012.27
2018-06-16T03:26:47.515Z,1012.26
2018-06-16T03:27:47.440Z,1012.24
2018-06-16T03:28:47.364Z,1012.21
2018-06-16T03:29:47.278Z,1012.20
2018-06-16T03:30:47.205Z,1012.20
2018-06-16T03:31:47.126Z,1012.22
2018-06-16T03:32:47.044Z,1012.23
2018-06-16T03:33:46.965Z,1012.23
2018-06-16T03:34:46.893Z,1012.21
2018-06-16T03:35:46.818Z,1012.21
2018-06-16T03:36:46.728Z,1012.19
2018-06-16T03:37:46.653Z,1012.14
2018-06-16T03:38:46.578Z,1012.17
2018-06-16T03:39:46.503Z,1012.19
2018-06-16T03:40:46.416Z,1012.19
2018-06-16T03:41:46.341Z,1012.18
2018-06-16T03:42:46.268Z,1012.21
2018-06-16T03:43:46.229Z,1012.17
2018-06-16T03:44:46.103Z,1012.19
2018-06-16T03:45:46.028Z,1012.18
2018-06-16T03:46:45.967Z,1012.18
2018-06-16T03:47:45.879Z,1012.14
2018-06-16T03:48:45.797Z,1012.19
2018-06-16T03:49:45.717Z,1012.18
2018-06-16T03:50:45.642Z,1012.20
2018-06-16T03:51:45.568Z,1012.21
2018-06-16T03:52:45.479Z,1012.18
2018-06-16T03:53:45.404Z,1012.17
2018-06-16T03:54:45.329Z,1012.16
2018-06-16T03:55:45.258Z,1012.15
2018-06-16T03:56:45.167Z,1012.18
2018-06-16T03:57:45.094Z,1012.21
2018-06-16T03:58:45.020Z,1012.17
2018-06-16T03:59:44.943Z,1012.16
2018-06-16T04:00:44.855Z,1012.18
2018-06-16T04:01:44.810Z,1012.17
2018-06-16T04:02:44.707Z,1012.17
2018-06-16T04:03:44.630Z,1012.22
2018-06-16T04:04:44.554Z,1012.19
2018-06-16T04:05:44.469Z,1012.25
2018-06-16T04:06:44.394Z,1012.22
2018-06-16T04:07:44.319Z,1012.25
2018-06-16T04:08:44.232Z,1012.21
2018-06-16T04:09:44.155Z,1012.24
2018-06-16T04:10:44.096Z,1012.25
2018-06-16T04:11:44.007Z,1012.26
2018-06-16T04:12:43.931Z,1012.24
2018-06-16T04:13:43.845Z,1012.27
2018-06-16T04:14:43.769Z,1012.26
2018-06-16T04:15:43.744Z,1012.25
2018-06-16T04:16:43.642Z,1012.20
2018-06-16T04:17:43.546Z,1012.24
2018-06-16T04:18:43.456Z,1012.24
2018-06-16T04:19:43.381Z,1012.20
2018-06-16T04:20:43.307Z,1012.21
2018-06-16T04:21:43.231Z,1012.21
2018-06-16T04:22:43.145Z,1012.19
2018-06-16T04:23:43.070Z,1012.21
2018-06-16T04:24:42.998Z,1012.20
2018-06-16T04:25:42.921Z,1012.17
2018-06-16T04:26:42.833Z,1012.18
2018-06-16T04:27:42.760Z,1012.19
2018-06-16T04:28:42.683Z,1012.17
2018-06-16T04:29:42.609Z,1012.18
2018-06-16T04:30:42.534Z,1012.22
2018-06-16T04:31:42.446Z,1012.22
2018-06-16T04:32:42.371Z,1012.18
2018-06-16T04:33:42.296Z,1012.19
2018-06-16T04:34:42.271Z,1012.21
2018-06-16T04:35:42.135Z,1012.21
2018-06-16T04:36:42.071Z,1012.18
2018-06-16T04:37:41.983Z,1012.18
2018-06-16T04:38:41.912Z,1012.17
2018-06-16T04:39:41.837Z,1012.18
2018-06-16T04:40:41.749Z,1012.17
2018-06-16T04:41:41.671Z,1012.16
2018-06-16T04:42:41.597Z,1012.23
2018-06-16T04:43:41.522Z,1012.18
2018-06-16T04:44:41.447Z,1012.22
2018-06-16T04:45:41.439Z,1012.21
2018-06-16T04:46:41.284Z,1012.19
2018-06-16T04:47:41.210Z,1012.19
2018-06-16T04:48:41.135Z,1012.20
2018-06-16T04:49:41.093Z,1012.19
2018-06-16T04:50:40.973Z,1012.19
2018-06-16T04:51:40.899Z,1012.21
2018-06-16T04:52:40.829Z,1012.17
2018-06-16T04:53:40.750Z,1012.20
2018-06-16T04:54:40.694Z,1012.20
2018-06-16T04:55:40.598Z,1012.19
2018-06-16T04:56:40.510Z,1012.20
2018-06-16T04:57:40.438Z,1012.16
2018-06-16T04:58:40.361Z,1012.15
2018-06-16T04:59:40.288Z,1012.18
2018-06-16T05:00:40.224Z,1012.16
2018-06-16T05:01:40.126Z,1012.13
2018-06-16T05:02:40.051Z,1012.15
2018-06-16T05:03:39.974Z,1012.16
2018-06-16T05:04:39.900Z,1012.13
2018-06-16T05:05:39.824Z,1012.14
2018-06-16T05:06:39.750Z,1012.13
2018-06-16T05:07:39.675Z,1012.13
2018-06-16T05:08:39.645Z,1012.16
2018-06-16T05:09:39.512Z,1012.15
2018-06-16T05:10:39.436Z,1012.17
2018-06-16T05:11:39.364Z,1012.15
2018-06-16T05:12:39.289Z,1012.18
2018-06-16T05:13:39.212Z,1012.16
2018-06-16T05:14:39.126Z,1012.20
2018-06-16T05:15:39.053Z,1012.20
2018-06-16T05:16:38.975Z,1012.20
2018-06-16T05:17:38.910Z,1012.18
2018-06-16T05:18:38.825Z,1012.19
2018-06-16T05:19:38.751Z,1012.18
2018-06-16T05:20:38.676Z,1012.18
2018-06-16T05:21:38.589Z,1012.16
2018-06-16T05:22:38.513Z,1012.17
2018-06-16T05:23:38.438Z,1012.18
2018-06-16T05:24:38.363Z,1012.14
2018-06-16T05:25:38.313Z,1012.14
2018-06-16T05:26:38.213Z,1012.14
2018-06-16T05:27:38.139Z,1012.16
2018-06-16T05:28:38.064Z,1012.15
2018-06-16T05:29:37.977Z,1012.16
2018-06-16T05:30:37.902Z,1012.19
2018-06-16T05:31:37.827Z,1012.19
2018-06-16T05:32:37.752Z,1012.23
2018-06-16T05:33:37.678Z,1012.21
2018-06-16T05:34:37.603Z,1012.20
2018-06-16T05:35:37.534Z,1012.23
2018-06-16T05:36:37.455Z,1012.23
2018-06-16T05:37:37.377Z,1012.19
2018-06-16T05:38:37.303Z,1012.19
2018-06-16T05:39:37.215Z,1012.19
2018-06-16T05:40:37.139Z,1012.21
2018-06-16T05:41:37.068Z,1012.19
2018-06-16T05:42:37.003Z,1012.19
2018-06-16T05:43:36.914Z,1012.17
2018-06-16T05:44:36.840Z,1012.18
2018-06-16T05:45:36.767Z,1012.24
2018-06-16T05:46:36.703Z,1012.24
2018-06-16T05:47:36.615Z,1012.27
2018-06-16T05:48:36.541Z,1012.25
2018-06-16T05:49:36.465Z,1012.24
2018-06-16T05:50:36.379Z,1012.25
2018-06-16T05:51:36.304Z,1012.27
2018-06-16T05:52:36.235Z,1012.26
2018-06-16T05:53:36.156Z,1012.28
2018-06-16T05:54:36.079Z,1012.28
2018-06-16T05:55:36.005Z,1012.28
2018-06-16T05:56:35.931Z,1012.27
2018-06-16T05:57:35.855Z,1012.27
2018-06-16T05:58:35.785Z,1012.28
2018-06-16T05:59:35.705Z,1012.25
2018-06-16T06:00:35.676Z,1012.29
2018-06-16T06:01:35.555Z,1012.28
2018-06-16T06:02:35.479Z,1012.26
2018-06-16T06:03:35.405Z,1012.27
2018-06-16T06:04:35.318Z,1012.28
2018-06-16T06:05:35.255Z,1012.27
2018-06-16T06:06:35.168Z,1012.31
2018-06-16T06:07:35.095Z,1012.31
2018-06-16T06:08:35.018Z,1012.28
2018-06-16T06:09:34.942Z,1012.30
2018-06-16T06:10:34.885Z,1012.30
2018-06-16T06:11:34.792Z,1012.32
2018-06-16T06:12:34.718Z,1012.34
2018-06-16T06:13:34.644Z,1012.34
2018-06-16T06:14:34.571Z,1012.34
2018-06-16T06:15:34.493Z,1012.31
2018-06-16T06:16:34.418Z,1012.37
2018-06-16T06:17:34.342Z,1012.40
2018-06-16T06:18:34.268Z,1012.38
2018-06-16T06:19:34.194Z,1012.41
2018-06-16T06:20:34.119Z,1012.45
2018-06-16T06:21:34.044Z,1012.45
2018-06-16T06:22:33.969Z,1012.43
2018-06-16T06:23:33.896Z,1012.46
2018-06-16T06:24:33.819Z,1012.42
2018-06-16T06:25:33.745Z,1012.44
2018-06-16T06:26:33.669Z,1012.44
2018-06-16T06:27:33.607Z,1012.46
2018-06-16T06:28:33.523Z,1012.45
2018-06-16T06:29:33.444Z,1012.42
2018-06-16T06:30:33.370Z,1012.42
2018-06-16T06:31:33.307Z,1012.44
2018-06-16T06:32:33.220Z,1012.39
2018-06-16T06:33:33.145Z,1012.39
2018-06-16T06:34:33.071Z,1012.39
2018-06-16T06:35:32.995Z,1012.40
2018-06-16T06:36:32.920Z,1012.39
2018-06-16T06:37:32.845Z,1012.40
2018-06-16T06:38:32.770Z,1012.41
2018-06-16T06:39:32.696Z,1012.38
2018-06-16T06:40:32.621Z,1012.37
2018-06-16T06:41:32.546Z,1012.37
2018-06-16T06:42:32.471Z,1012.35
2018-06-16T06:43:32.474Z,1012.37
2018-06-16T06:44:32.334Z,1012.37
2018-06-16T06:45:32.246Z,1012.34
2018-06-16T06:46:32.171Z,1012.35
2018-06-16T06:47:32.096Z,1012.36
2018-06-16T06:48:32.010Z,1012.36
2018-06-16T06:49:31.935Z,1012.36
2018-06-16T06:50:31.860Z,1012.41
2018-06-16T06:51:31.796Z,1012.39
2018-06-16T06:52:31.712Z,1012.40
2018-06-16T06:53:31.635Z,1012.40
2018-06-16T06:54:31.560Z,1012.39
2018-06-16T06:55:31.498Z,1012.42
2018-06-16T06:56:31.412Z,1012.42
2018-06-16T06:57:31.336Z,1012.42
2018-06-16T06:58:31.273Z,1012.41
2018-06-16T06:59:31.197Z,1012.40
2018-06-16T07:00:31.111Z,1012.44
2018-06-16T07:01:31.036Z,1012.42
2018-06-16T07:02:30.961Z,1012.40
2018-06-16T07:03:30.887Z,1012.44
2018-06-16T07:04:30.812Z,1012.42
2018-06-16T07:05:30.736Z,1012.39
2018-06-16T07:06:30.662Z,1012.41
2018-06-16T07:07:30.598Z,1012.42
2018-06-16T07:08:30.519Z,1012.43
2018-06-16T07:09:30.469Z,1012.43
2018-06-16T07:10:30.402Z,1012.41
2018-06-16T07:11:30.300Z,1012.43
2018-06-16T07:12:30.224Z,1012.41
2018-06-16T07:13:30.149Z,1012.39
2018-06-16T07:14:30.093Z,1012.39
2018-06-16T07:15:29.999Z,1012.38
2018-06-16T07:16:29.925Z,1012.41
2018-06-16T07:17:29.851Z,1012.38
2018-06-16T07:18:29.775Z,1012.42
2018-06-16T07:19:29.700Z,1012.40
2018-06-16T07:20:29.627Z,1012.38
2018-06-16T07:21:29.553Z,1012.39
2018-06-16T07:22:29.476Z,1012.38
2018-06-16T07:23:29.459Z,1012.36
2018-06-16T07:24:29.326Z,1012.32
2018-06-16T07:25:29.265Z,1012.34
2018-06-16T07:26:29.200Z,1012.35
2018-06-16T07:27:29.115Z,1012.34
2018-06-16T07:28:29.046Z,1012.32
2018-06-16T07:29:28.965Z,1012.36
2018-06-16T07:30:28.894Z,1012.32
2018-06-16T07:31:28.814Z,1012.29
2018-06-16T07:32:28.743Z,1012.33
2018-06-16T07:33:28.676Z,1012.29
2018-06-16T07:34:28.615Z,1012.33
2018-06-16T07:35:28.527Z,1012.36
2018-06-16T07:36:28.452Z,1012.32
2018-06-16T07:37:28.377Z,1012.32
2018-06-16T07:38:28.303Z,1012.33
2018-06-16T07:39:28.227Z,1012.35
2018-06-16T07:40:28.152Z,1012.37
2018-06-16T07:41:28.134Z,1012.41
2018-06-16T07:42:28.018Z,1012.39
2018-06-16T07:43:27.940Z,1012.40
2018-06-16T07:44:27.866Z,1012.39
2018-06-16T07:45:27.821Z,1012.43
2018-06-16T07:46:27.716Z,1012.44
2018-06-16T07:47:27.670Z,1012.40
2018-06-16T07:48:27.579Z,1012.40
2018-06-16T07:49:27.503Z,1012.40
2018-06-16T07:50:27.428Z,1012.39
2018-06-16T07:51:27.365Z,1012.44
2018-06-16T07:52:27.294Z,1012.45
2018-06-16T07:53:27.216Z,1012.43
2018-06-16T07:54:27.141Z,1012.43
2018-06-16T07:55:27.079Z,1012.46
2018-06-16T07:56:27.004Z,1012.43
2018-06-16T07:57:26.929Z,1012.44
2018-06-16T07:58:26.869Z,1012.44
2018-06-16T07:59:26.795Z,1012.43
2018-06-16T08:00:26.718Z,1012.43
2018-06-16T08:01:26.655Z,1012.46
2018-06-16T08:02:26.579Z,1012.47
2018-06-16T08:03:26.504Z,1012.44
2018-06-16T08:04:26.442Z,1012.42
2018-06-16T08:05:26.371Z,1012.42
2018-06-16T08:06:26.305Z,1012.43
2018-06-16T08:07:26.231Z,1012.40
2018-06-16T08:08:26.154Z,1012.44
2018-06-16T08:09:26.094Z,1012.43
2018-06-16T08:10:26.019Z,1012.42
2018-06-16T08:11:25.955Z,1012.42
2018-06-16T08:12:25.894Z,1012.45
2018-06-16T08:13:25.815Z,1012.46
2018-06-16T08:14:25.743Z,1012.45
2018-06-16T08:15:25.669Z,1012.44
2018-06-16T08:16:25.606Z,1012.44
2018-06-16T08:17:25.531Z,1012.39
2018-06-16T08:18:25.469Z,1012.39
2018-06-16T08:19:25.395Z,1012.39
2018-06-16T08:20:25.324Z,1012.40
2018-06-16T08:21:25.256Z,1012.39
2018-06-16T08:22:25.183Z,1012.41
2018-06-16T08:23:25.123Z,1012.40
2018-06-16T08:24:25.045Z,1012.37
2018-06-16T08:25:24.982Z,1012.38
2018-06-16T08:26:24.907Z,1012.35
2018-06-16T08:27:24.845Z,1012.36
2018-06-16T08:28:24.772Z,1012.36
2018-06-16T08:29:24.707Z,1012.41
2018-06-16T08:30:24.632Z,1012.30
2018-06-16T08:31:24.571Z,1012.34
2018-06-16T08:32:24.496Z,1012.35
2018-06-16T08:33:24.433Z,1012.34
2018-06-16T08:34:24.359Z,1012.32
2018-06-16T08:35:24.301Z,1012.35
2018-06-16T08:36:24.221Z,1012.32
2018-06-16T08:37:24.159Z,1012.34
2018-06-16T08:38:24.083Z,1012.37
2018-06-16T08:39:24.021Z,1012.35
2018-06-16T08:40:23.946Z,1012.36
2018-06-16T08:41:23.883Z,1012.35
2018-06-16T08:42:23.808Z,1012.37
2018-06-16T08:43:23.780Z,1012.38
2018-06-16T08:44:23.672Z,1012.39
2018-06-16T08:45:23.598Z,1012.40
2018-06-16T08:46:23.534Z,1012.39
2018-06-16T08:47:23.461Z,1012.38
2018-06-16T08:48:23.398Z,1012.41
2018-06-16T08:49:23.324Z,1012.37
2018-06-16T08:50:23.259Z,1012.34
2018-06-16T08:51:23.184Z,1012.37
2018-06-16T08:52:23.123Z,1012.35
2018-06-16T08:53:23.047Z,1012.37
2018-06-16T08:54:22.985Z,1012.33
2018-06-16T08:55:23.035Z,1012.33
2018-06-16T08:56:22.849Z,1012.31
2018-06-16T08:57:22.776Z,1012.31
2018-06-16T08:58:22.710Z,1012.28
2018-06-16T08:59:22.636Z,1012.33
2018-06-16T09:00:22.574Z,1012.30
2018-06-16T09:01:22.510Z,1012.24
2018-06-16T09:02:22.435Z,1012.25
2018-06-16T09:03:22.373Z,1012.29
2018-06-16T09:04:22.299Z,1012.31
2018-06-16T09:05:22.237Z,1012.40
2018-06-16T09:06:22.161Z,1012.43
2018-06-16T09:07:22.099Z,1012.36
2018-06-16T09:08:22.041Z,1012.34
2018-06-16T09:09:21.966Z,1012.37
2018-06-16T09:10:21.899Z,1012.35
2018-06-16T09:11:21.824Z,1012.35
2018-06-16T09:12:21.761Z,1012.37
2018-06-16T09:13:21.700Z,1012.34
2018-06-16T09:14:21.624Z,1012.35
2018-06-16T09:15:21.561Z,1012.53
2018-06-16T09:16:21.500Z,1012.47
2018-06-16T09:17:21.476Z,1012.48
2018-06-16T09:18:21.362Z,1012.41
2018-06-16T09:19:21.301Z,1012.38
2018-06-16T09:20:21.224Z,1012.40
2018-06-16T09:21:21.161Z,1012.44
2018-06-16T09:22:21.101Z,1012.52
2018-06-16T09:23:21.039Z,1012.35
2018-06-16T09:24:20.962Z,1012.39
2018-06-16T09:25:20.900Z,1012.30
2018-06-16T09:26:20.839Z,1012.30
2018-06-16T09:27:20.767Z,1012.25
2018-06-16T09:28:20.706Z,1012.31
2018-06-16T09:29:20.639Z,1012.38
2018-06-16T09:30:20.576Z,1012.37
2018-06-16T09:31:20.518Z,1012.37
2018-06-16T09:32:20.438Z,1012.40
2018-06-16T09:33:20.376Z,1012.35
2018-06-16T09:34:20.313Z,1012.33
2018-06-16T09:35:20.253Z,1012.19
2018-06-16T09:36:20.248Z,1012.20
2018-06-16T09:37:20.114Z,1012.21
2018-06-16T09:38:20.052Z,1012.23
2018-06-16T09:39:19.977Z,1012.33
2018-06-16T09:40:19.917Z,1012.59
2018-06-16T09:41:19.853Z,1012.35
2018-06-16T09:42:19.778Z,1012.32
2018-06-16T09:43:19.713Z,1012.37
2018-06-16T09:44:19.653Z,1012.29
2018-06-16T09:45:19.578Z,1012.20
2018-06-16T09:46:19.518Z,1012.30
2018-06-16T09:47:19.452Z,1012.39
2018-06-16T09:48:19.401Z,1012.33
2018-06-16T09:49:19.317Z,1012.23
2018-06-16T09:50:19.253Z,1012.44
2018-06-16T09:51:19.191Z,1012.51
2018-06-16T09:52:19.117Z,1012.44
2018-06-16T09:53:19.053Z,1012.31
2018-06-16T09:54:18.990Z,1012.58
2018-06-16T09:55:18.916Z,1012.55
2018-06-16T09:56:18.853Z,1012.07
2018-06-16T09:57:18.790Z,1012.32
2018-06-16T09:58:18.729Z,1012.30
2018-06-16T09:59:18.665Z,1012.23
2018-06-16T10:00:18.590Z,1012.29
2018-06-16T10:01:18.528Z,1012.33
2018-06-16T10:02:18.466Z,1012.50
2018-06-16T10:03:18.471Z,1012.42
2018-06-16T10:04:18.329Z,1012.33
2018-06-16T10:05:18.266Z,1012.43
2018-06-16T10:06:18.204Z,1012.51
2018-06-16T10:07:18.142Z,1012.43
2018-06-16T10:08:18.080Z,1012.26
2018-06-16T10:09:18.007Z,1012.08
2018-06-16T10:10:17.942Z,1011.97
2018-06-16T10:11:17.880Z,1011.93
2018-06-16T10:12:17.817Z,1011.94
2018-06-16T10:13:17.743Z,1011.93
2018-06-16T10:14:17.680Z,1011.95
2018-06-16T10:15:17.618Z,1011.91
2018-06-16T10:16:17.556Z,1011.94
2018-06-16T10:17:17.481Z,1011.90
2018-06-16T10:18:17.417Z,1011.86
2018-06-16T10:19:17.357Z,1011.86
2018-06-16T10:20:17.293Z,1011.82
2018-06-16T10:21:17.229Z,1011.81
2018-06-16T10:22:17.158Z,1011.83
2018-06-16T10:23:17.093Z,1011.83
2018-06-16T10:24:17.019Z,1011.80
2018-06-16T10:25:16.963Z,1011.79
2018-06-16T10:26:16.883Z,1011.81
2018-06-16T10:27:16.832Z,1011.78
2018-06-16T10:28:16.745Z,1011.78
2018-06-16T10:29:16.683Z,1011.81
2018-06-16T10:30:16.633Z,1011.78
2018-06-16T10:31:16.544Z,1011.77
2018-06-16T10:32:16.482Z,1011.73
2018-06-16T10:33:16.407Z,1011.73
2018-06-16T10:34:16.344Z,1011.77
2018-06-16T10:35:16.269Z,1011.66
2018-06-16T10:36:16.221Z,1011.73
2018-06-16T10:37:16.133Z,1011.73
2018-06-16T10:38:16.071Z,1011.69
2018-06-16T10:39:15.996Z,1011.69
2018-06-16T10:40:15.937Z,1011.68
2018-06-16T10:41:15.862Z,1011.66
2018-06-16T10:42:15.795Z,1011.63
2018-06-16T10:43:15.720Z,1011.62
2018-06-16T10:44:15.646Z,1011.61
2018-06-16T10:45:15.584Z,1011.61
2018-06-16T10:46:15.508Z,1011.59
2018-06-16T10:47:15.446Z,1011.59
2018-06-16T10:48:15.372Z,1011.58
2018-06-16T10:49:15.309Z,1011.58
2018-06-16T10:50:15.234Z,1011.57
2018-06-16T10:51:15.171Z,1011.50
2018-06-16T10:52:15.096Z,1011.53
2018-06-16T10:53:15.038Z,1011.51
2018-06-16T10:54:14.961Z,1011.50
2018-06-16T10:55:14.898Z,1011.48
2018-06-16T10:56:14.821Z,1011.49
2018-06-16T10:57:14.747Z,1011.46
2018-06-16T10:58:14.685Z,1011.46
2018-06-16T10:59:14.610Z,1011.47
2018-06-16T11:00:14.548Z,1011.47
2018-06-16T11:01:14.472Z,1011.43
2018-06-16T11:02:14.410Z,1011.44
2018-06-16T11:03:14.343Z,1011.41
2018-06-16T11:04:14.260Z,1011.37
2018-06-16T11:05:14.198Z,1011.37
2018-06-16T11:06:14.122Z,1011.38
2018-06-16T11:07:14.049Z,1011.35
2018-06-16T11:08:13.989Z,1011.37
2018-06-16T11:09:13.962Z,1011.38
2018-06-16T11:10:13.848Z,1011.33
2018-06-16T11:11:13.772Z,1011.36
2018-06-16T11:12:13.698Z,1011.37
2018-06-16T11:13:13.637Z,1011.38
2018-06-16T11:14:13.561Z,1011.36
2018-06-16T11:15:13.487Z,1011.39
2018-06-16T11:16:13.423Z,1011.37
2018-06-16T11:17:13.349Z,1011.36
2018-06-16T11:18:13.278Z,1011.36
2018-06-16T11:19:13.213Z,1011.33
2018-06-16T11:20:13.149Z,1011.33
2018-06-16T11:21:13.076Z,1011.35
2018-06-16T11:22:12.999Z,1011.34
2018-06-16T11:23:12.924Z,1011.30
2018-06-16T11:24:12.862Z,1011.35
2018-06-16T11:25:12.787Z,1011.35
2018-06-16T11:26:12.713Z,1011.32
2018-06-16T11:27:12.849Z,1011.28
2018-06-16T11:29:36.825Z,1011.28
2018-06-16T11:30:36.752Z,1011.31
2018-06-16T11:31:36.689Z,1011.30
2018-06-16T11:32:36.613Z,1011.28
2018-06-16T11:33:36.551Z,1011.31
2018-06-16T11:34:36.489Z,1011.28
2018-06-16T11:35:36.402Z,1011.24
2018-06-16T11:36:36.339Z,1011.24
2018-06-16T11:37:36.264Z,1011.22
2018-06-16T11:38:36.202Z,1011.18
2018-06-16T11:39:36.126Z,1011.19
2018-06-16T11:40:36.068Z,1011.20
2018-06-16T11:41:35.991Z,1011.29
2018-06-16T11:42:35.917Z,1011.12
2018-06-16T11:43:35.892Z,1011.14
2018-06-16T11:44:35.791Z,1011.09
2018-06-16T11:45:35.714Z,1011.05
2018-06-16T11:46:35.641Z,1011.11
2018-06-16T11:47:35.578Z,1011.12
2018-06-16T11:48:35.502Z,1011.08
2018-06-16T11:49:35.443Z,1011.05
2018-06-16T11:50:35.365Z,1011.07
2018-06-16T11:51:35.290Z,1011.08
2018-06-16T11:52:35.227Z,1011.01
2018-06-16T11:53:35.152Z,1011.02
2018-06-16T11:54:35.090Z,1011.01
2018-06-16T11:55:35.015Z,1011.03
2018-06-16T11:56:34.954Z,1011.03
2018-06-16T11:57:34.936Z,1011.01
2018-06-16T11:58:34.815Z,1010.99
2018-06-16T11:59:34.742Z,1010.97
2018-06-16T12:00:34.678Z,1010.98
2018-06-16T12:01:34.604Z,1010.97
2018-06-16T12:02:34.528Z,1010.95
2018-06-16T12:03:34.472Z,1010.91
2018-06-16T12:04:34.395Z,1010.93
2018-06-16T12:05:34.329Z,1010.91
2018-06-16T12:06:34.256Z,1010.90